TimeCST,TemperatureF,Dew PointF,Humidity,Sea Level PressureIn,VisibilityMPH,Wind Direction,Wind SpeedMPH,Gust SpeedMPH,PrecipitationIn,Events,Conditions,WindDirDegrees,DateUTC
12:34 AM,53.6,51.8,94,29.52,3.0,NNW,6.9,-,0.16,Rain,Rain,330,2013-01-30 06:34:00
12:41 AM,53.6,51.8,94,29.53,2.5,NNW,3.5,-,0.20,Rain,Heavy Rain,330,2013-01-30 06:41:00
12:53 AM,53.1,51.1,93,29.53,3.0,NNW,6.9,-,0.29,Rain,Heavy Rain,330,2013-01-30 06:53:00
1:00 AM,53.6,51.8,94,29.51,3.0,North,12.7,-,0.05,Rain,Heavy Rain,350,2013-01-30 07:00:00
1:53 AM,53.1,51.1,93,29.54,8.0,Calm,Calm,-,0.25,Rain,Light Rain,0,2013-01-30 07:53:00
2:53 AM,52.0,51.1,97,29.53,5.0,SE,3.5,-,0.08,Rain,Rain,140,2013-01-30 08:53:00
3:53 AM,52.0,51.1,97,29.49,6.0,SE,6.9,-,0.12,Rain,Rain,140,2013-01-30 09:53:00
4:53 AM,52.0,51.1,97,29.47,10.0,SSE,10.4,-,0.06,Rain,Light Rain,150,2013-01-30 10:53:00
5:10 AM,51.8,51.8,100,29.48,10.0,South,10.4,-,0.00,Rain,Light Rain,170,2013-01-30 11:10:00
5:28 AM,51.8,51.8,100,29.48,10.0,South,9.2,-,0.00,,Mostly Cloudy,170,2013-01-30 11:28:00
5:53 AM,51.8,51.8,100,29.47,10.0,SSE,9.2,-,N/A,,Mostly Cloudy,160,2013-01-30 11:53:00
6:21 AM,51.8,51.8,100,29.47,10.0,South,8.1,-,N/A,,Scattered Clouds,180,2013-01-30 12:21:00
6:53 AM,52.0,51.1,97,29.46,10.0,South,3.5,-,N/A,,Partly Cloudy,190,2013-01-30 12:53:00
7:00 AM,51.8,51.8,100,29.48,10.0,SSW,4.6,-,N/A,,Scattered Clouds,200,2013-01-30 13:00:00
7:09 AM,51.8,51.8,100,29.48,10.0,SSW,4.6,-,N/A,,Mostly Cloudy,200,2013-01-30 13:09:00
7:46 AM,53.6,51.8,94,29.48,10.0,SSW,6.9,-,N/A,,Overcast,200,2013-01-30 13:46:00
7:53 AM,53.1,51.1,93,29.49,10.0,SSW,9.2,17.3,N/A,,Overcast,200,2013-01-30 13:53:00
8:53 AM,54.0,51.1,90,29.48,10.0,SSW,10.4,20.7,N/A,,Overcast,210,2013-01-30 14:53:00
9:10 AM,55.4,51.8,88,29.48,10.0,SW,13.8,19.6,N/A,,Overcast,220,2013-01-30 15:10:00
9:53 AM,55.9,50.0,80,29.46,10.0,SSW,12.7,19.6,N/A,,Mostly Cloudy,210,2013-01-30 15:53:00
10:53 AM,55.9,48.9,77,29.44,10.0,SW,12.7,27.6,N/A,,Mostly Cloudy,220,2013-01-30 16:53:00
11:09 AM,55.4,48.2,77,29.45,10.0,SSW,13.8,25.3,N/A,,Overcast,210,2013-01-30 17:09:00
11:23 AM,55.4,48.2,77,29.43,10.0,SW,16.1,24.2,N/A,,Mostly Cloudy,220,2013-01-30 17:23:00
11:34 AM,55.4,48.2,77,29.43,10.0,SW,13.8,27.6,N/A,,Mostly Cloudy,220,2013-01-30 17:34:00
11:53 AM,55.0,46.9,74,29.45,10.0,SW,15.0,29.9,N/A,,Overcast,220,2013-01-30 17:53:00
12:33 PM,51.8,44.6,76,29.46,10.0,West,25.3,40.3,0.00,,Overcast,270,2013-01-30 18:33:00
12:53 PM,46.9,39.9,77,29.49,10.0,West,25.3,39.1,0.00,,Overcast,270,2013-01-30 18:53:00
1:07 PM,46.4,39.2,76,29.49,10.0,West,24.2,32.2,N/A,,Overcast,260,2013-01-30 19:07:00
1:42 PM,46.4,39.2,76,29.50,10.0,West,20.7,32.2,N/A,,Overcast,280,2013-01-30 19:42:00
1:53 PM,46.0,37.0,71,29.51,10.0,West,26.5,33.4,N/A,,Overcast,270,2013-01-30 19:53:00
2:14 PM,46.4,37.4,71,29.52,10.0,West,19.6,26.5,N/A,,Overcast,270,2013-01-30 20:14:00
2:53 PM,46.9,34.0,61,29.53,10.0,West,19.6,25.3,N/A,,Overcast,260,2013-01-30 20:53:00
3:53 PM,41.0,32.0,70,29.60,10.0,WNW,19.6,29.9,N/A,,Overcast,290,2013-01-30 21:53:00
4:53 PM,37.9,26.1,62,29.67,10.0,WNW,18.4,35.7,N/A,,Overcast,290,2013-01-30 22:53:00
5:53 PM,36.0,23.0,59,29.72,10.0,WNW,19.6,31.1,N/A,,Overcast,300,2013-01-30 23:53:00
6:53 PM,35.1,24.1,64,29.78,10.0,WNW,18.4,26.5,N/A,,Overcast,290,2013-01-31 00:53:00
7:53 PM,34.0,23.0,64,29.82,10.0,WNW,16.1,31.1,N/A,,Overcast,290,2013-01-31 01:53:00
8:53 PM,34.0,23.0,64,29.86,10.0,West,18.4,31.1,N/A,,Overcast,280,2013-01-31 02:53:00
9:53 PM,33.1,21.9,64,29.89,10.0,WNW,16.1,27.6,N/A,,Overcast,300,2013-01-31 03:53:00
10:53 PM,33.1,21.0,61,29.91,10.0,West,15.0,28.8,N/A,,Overcast,280,2013-01-31 04:53:00
11:53 PM,33.1,19.9,59,29.94,10.0,WNW,9.2,-,N/A,,Overcast,290,2013-01-31 05:53:00